sensor_id;sensor_type;location;lat;lon;timestamp;pressure;altitude;pressure_sealevel;temperature;humidity
76397;BME280;66045;51.622;5.526;2022-12-20T00:01:13;101348.25;;;15.12;52.24
76397;BME280;66045;51.622;5.526;2022-12-20T00:03:40;101361.50;;;15.12;52.38
76397;BME280;66045;51.622;5.526;2022-12-20T00:06:06;101365.94;;;15.13;52.28
76397;BME280;66045;51.622;5.526;2022-12-20T00:08:31;101366.81;;;15.14;52.26
76397;BME280;66045;51.622;5.526;2022-12-20T00:11:00;101356.19;;;15.12;52.33
76397;BME280;66045;51.622;5.526;2022-12-20T00:13:26;101366.81;;;15.14;52.16
76397;BME280;66045;51.622;5.526;2022-12-20T00:16:27;101343.88;;;15.07;52.28
76397;BME280;66045;51.622;5.526;2022-12-20T00:18:55;101364.16;;;15.15;52.30
76397;BME280;66045;51.622;5.526;2022-12-20T00:21:21;101357.06;;;15.14;52.18
76397;BME280;66045;51.622;5.526;2022-12-20T00:23:47;101353.53;;;15.17;52.13
76397;BME280;66045;51.622;5.526;2022-12-20T00:26:15;101350.88;;;15.17;52.33
76397;BME280;66045;51.622;5.526;2022-12-20T00:28:41;101350.88;;;15.17;52.34
76397;BME280;66045;51.622;5.526;2022-12-20T00:31:08;101343.78;;;15.17;52.30
76397;BME280;66045;51.622;5.526;2022-12-20T00:33:35;101346.44;;;15.19;52.32
76397;BME280;66045;51.622;5.526;2022-12-20T00:36:01;101334.97;;;15.17;52.44
76397;BME280;66045;51.622;5.526;2022-12-20T00:38:27;101345.56;;;15.17;52.34
76397;BME280;66045;51.622;5.526;2022-12-20T00:41:07;101331.41;;;15.19;52.33
76397;BME280;66045;51.622;5.526;2022-12-20T00:43:33;101325.22;;;15.20;52.35
76397;BME280;66045;51.622;5.526;2022-12-20T00:45:59;101338.47;;;15.22;52.47
76397;BME280;66045;51.622;5.526;2022-12-20T00:48:25;101328.75;;;15.22;52.33
76397;BME280;66045;51.622;5.526;2022-12-20T00:50:51;101322.56;;;15.22;52.31
76397;BME280;66045;51.622;5.526;2022-12-20T00:53:17;101315.50;;;15.21;52.42
76397;BME280;66045;51.622;5.526;2022-12-20T00:55:43;101314.59;;;15.24;52.48
76397;BME280;66045;51.622;5.526;2022-12-20T00:58:10;101322.56;;;15.24;52.51
76397;BME280;66045;51.622;5.526;2022-12-20T01:00:36;101311.06;;;15.25;52.39
76397;BME280;66045;51.622;5.526;2022-12-20T01:03:02;101322.56;;;15.24;52.39
76397;BME280;66045;51.622;5.526;2022-12-20T01:05:27;101328.72;;;15.26;52.41
76397;BME280;66045;51.622;5.526;2022-12-20T01:07:53;101323.41;;;15.26;52.30
76397;BME280;66045;51.622;5.526;2022-12-20T01:10:18;101318.13;;;15.24;52.72
76397;BME280;66045;51.622;5.526;2022-12-20T01:12:44;101331.38;;;15.27;52.33
76397;BME280;66045;51.622;5.526;2022-12-20T01:15:10;101326.09;;;15.24;52.49
76397;BME280;66045;51.622;5.526;2022-12-20T01:17:35;101331.34;;;15.29;52.31
76397;BME280;66045;51.622;5.526;2022-12-20T01:20:01;101333.16;;;15.27;52.26
76397;BME280;66045;51.622;5.526;2022-12-20T01:22:26;101334.88;;;15.26;52.29
76397;BME280;66045;51.622;5.526;2022-12-20T01:24:51;101336.66;;;15.27;52.40
76397;BME280;66045;51.622;5.526;2022-12-20T01:27:17;101339.28;;;15.29;52.28
76397;BME280;66045;51.622;5.526;2022-12-20T01:29:42;101340.16;;;15.31;52.25
76397;BME280;66045;51.622;5.526;2022-12-20T01:32:07;101335.75;;;15.30;52.40
76397;BME280;66045;51.622;5.526;2022-12-20T01:34:33;101320.72;;;15.30;52.42
76397;BME280;66045;51.622;5.526;2022-12-20T01:36:58;101330.44;;;15.31;52.26
76397;BME280;66045;51.622;5.526;2022-12-20T01:39:23;101339.25;;;15.32;52.25
76397;BME280;66045;51.622;5.526;2022-12-20T01:41:49;101334.91;;;15.29;52.26
76397;BME280;66045;51.622;5.526;2022-12-20T01:46:44;101331.31;;;15.32;52.37
76397;BME280;66045;51.622;5.526;2022-12-20T01:51:50;101330.44;;;15.31;52.39
76397;BME280;66045;51.622;5.526;2022-12-20T01:54:30;101322.47;;;15.31;52.37
76397;BME280;66045;51.622;5.526;2022-12-20T01:57:02;101319.81;;;15.33;52.33
76397;BME280;66045;51.622;5.526;2022-12-20T01:59:30;101310.09;;;15.33;52.39
76397;BME280;66045;51.622;5.526;2022-12-20T02:01:58;101302.13;;;15.33;52.26
76397;BME280;66045;51.622;5.526;2022-12-20T02:04:26;101303.91;;;15.33;52.38
76397;BME280;66045;51.622;5.526;2022-12-20T02:06:51;101291.53;;;15.32;52.42
76397;BME280;66045;51.622;5.526;2022-12-20T02:09:17;101280.91;;;15.32;52.33
76397;BME280;66045;51.622;5.526;2022-12-20T02:28:30;101258.78;;;15.37;52.50
76397;BME280;66045;51.622;5.526;2022-12-20T02:30:56;101249.06;;;15.36;52.57
76397;BME280;66045;51.622;5.526;2022-12-20T02:33:24;101249.09;;;15.33;52.63
76397;BME280;66045;51.622;5.526;2022-12-20T02:35:51;101264.09;;;15.36;52.64
76397;BME280;66045;51.622;5.526;2022-12-20T02:38:29;101243.75;;;15.36;52.61
76397;BME280;66045;51.622;5.526;2022-12-20T02:43:27;101252.59;;;15.37;52.62
76397;BME280;66045;51.622;5.526;2022-12-20T02:46:12;101244.63;;;15.37;52.59
76397;BME280;66045;51.622;5.526;2022-12-20T02:48:39;101239.31;;;15.37;52.54
76397;BME280;66045;51.622;5.526;2022-12-20T02:51:05;101235.81;;;15.36;52.68
76397;BME280;66045;51.622;5.526;2022-12-20T02:53:34;101237.59;;;15.36;52.48
76397;BME280;66045;51.622;5.526;2022-12-20T02:56:05;101234.03;;;15.37;52.63
76397;BME280;66045;51.622;5.526;2022-12-20T02:58:49;101225.19;;;15.38;52.48
76397;BME280;66045;51.622;5.526;2022-12-20T03:01:34;101227.84;;;15.38;52.50
76397;BME280;66045;51.622;5.526;2022-12-20T03:04:02;101233.16;;;15.38;52.65
76397;BME280;66045;51.622;5.526;2022-12-20T03:06:28;101231.38;;;15.38;52.74
76397;BME280;66045;51.622;5.526;2022-12-20T03:08:55;101229.59;;;15.37;52.68
76397;BME280;66045;51.622;5.526;2022-12-20T03:11:20;101230.50;;;15.38;52.73
76397;BME280;66045;51.622;5.526;2022-12-20T03:13:45;101225.19;;;15.38;52.73
76397;BME280;66045;51.622;5.526;2022-12-20T03:16:11;101232.25;;;15.37;52.72
76397;BME280;66045;51.622;5.526;2022-12-20T03:18:37;101233.16;;;15.38;52.63
76397;BME280;66045;51.622;5.526;2022-12-20T03:21:02;101225.19;;;15.38;52.67
76397;BME280;66045;51.622;5.526;2022-12-20T03:23:28;101226.09;;;15.34;52.83
76397;BME280;66045;51.622;5.526;2022-12-20T03:25:53;101226.94;;;15.39;52.76
76397;BME280;66045;51.622;5.526;2022-12-20T03:28:18;101222.53;;;15.38;52.81
76397;BME280;66045;51.622;5.526;2022-12-20T03:30:44;101220.75;;;15.37;52.81
76397;BME280;66045;51.622;5.526;2022-12-20T03:33:10;101212.88;;;15.31;52.68
76397;BME280;66045;51.622;5.526;2022-12-20T03:35:35;101219.88;;;15.38;52.76
76397;BME280;66045;51.622;5.526;2022-12-20T03:38:01;101206.63;;;15.38;52.80
76397;BME280;66045;51.622;5.526;2022-12-20T03:40:26;101220.75;;;15.38;52.76
76397;BME280;66045;51.622;5.526;2022-12-20T03:42:51;101219.88;;;15.38;52.93
76397;BME280;66045;51.622;5.526;2022-12-20T03:45:17;101220.75;;;15.38;52.95
76397;BME280;66045;51.622;5.526;2022-12-20T03:47:42;101222.53;;;15.38;52.86
76397;BME280;66045;51.622;5.526;2022-12-20T03:50:08;101235.81;;;15.38;53.02
76397;BME280;66045;51.622;5.526;2022-12-20T03:52:34;101246.41;;;15.38;52.94
76397;BME280;66045;51.622;5.526;2022-12-20T03:54:59;101241.97;;;15.38;53.00
76397;BME280;66045;51.622;5.526;2022-12-20T03:57:25;101222.56;;;15.32;53.03
76397;BME280;66045;51.622;5.526;2022-12-20T03:59:50;101235.81;;;15.38;53.01
76397;BME280;66045;51.622;5.526;2022-12-20T04:02:15;101225.19;;;15.38;52.99
76397;BME280;66045;51.622;5.526;2022-12-20T04:04:41;101215.50;;;15.35;52.98
76397;BME280;66045;51.622;5.526;2022-12-20T04:07:07;101221.63;;;15.39;53.05
76397;BME280;66045;51.622;5.526;2022-12-20T04:09:33;101217.19;;;15.39;53.06
76397;BME280;66045;51.622;5.526;2022-12-20T04:11:59;101219.88;;;15.38;52.93
76397;BME280;66045;51.622;5.526;2022-12-20T04:14:24;101222.50;;;15.39;53.05
76397;BME280;66045;51.622;5.526;2022-12-20T04:16:50;101224.28;;;15.39;53.19
76397;BME280;66045;51.622;5.526;2022-12-20T04:19:15;101200.41;;;15.39;53.06
76397;BME280;66045;51.622;5.526;2022-12-20T04:21:40;101210.13;;;15.40;52.99
76397;BME280;66045;51.622;5.526;2022-12-20T04:24:06;101218.09;;;15.38;53.06
76397;BME280;66045;51.622;5.526;2022-12-20T04:26:31;101218.09;;;15.37;53.22
76397;BME280;66045;51.622;5.526;2022-12-20T04:28:57;101221.63;;;15.40;53.17
76397;BME280;66045;51.622;5.526;2022-12-20T04:31:22;101217.19;;;15.39;53.06
76397;BME280;66045;51.622;5.526;2022-12-20T04:33:48;101213.69;;;15.39;53.18
76397;BME280;66045;51.622;5.526;2022-12-20T04:36:14;101216.34;;;15.40;53.21
76397;BME280;66045;51.622;5.526;2022-12-20T04:38:39;101212.78;;;15.40;53.13
76397;BME280;66045;51.622;5.526;2022-12-20T04:41:05;101209.25;;;15.39;53.22
76397;BME280;66045;51.622;5.526;2022-12-20T04:43:31;101204.81;;;15.40;53.22
76397;BME280;66045;51.622;5.526;2022-12-20T04:45:56;101195.13;;;15.40;53.06
76397;BME280;66045;51.622;5.526;2022-12-20T04:48:23;101210.16;;;15.37;53.12
76397;BME280;66045;51.622;5.526;2022-12-20T04:50:51;101209.25;;;15.41;53.11
76397;BME280;66045;51.622;5.526;2022-12-20T04:53:17;101209.25;;;15.39;53.15
76397;BME280;66045;51.622;5.526;2022-12-20T04:56:02;101204.81;;;15.40;53.08
76397;BME280;66045;51.622;5.526;2022-12-20T04:58:28;101206.59;;;15.41;53.12
76397;BME280;66045;51.622;5.526;2022-12-20T05:00:53;101203.94;;;15.41;53.19
76397;BME280;66045;51.622;5.526;2022-12-20T05:03:20;101194.28;;;15.34;52.90
76397;BME280;66045;51.622;5.526;2022-12-20T05:05:47;101189.81;;;15.37;52.97
76397;BME280;66045;51.622;5.526;2022-12-20T05:08:12;101196.84;;;15.41;53.23
76397;BME280;66045;51.622;5.526;2022-12-20T05:10:38;101194.22;;;15.40;53.09
76397;BME280;66045;51.622;5.526;2022-12-20T05:13:03;101203.06;;;15.40;53.20
76397;BME280;66045;51.622;5.526;2022-12-20T05:15:29;101187.16;;;15.40;53.23
76397;BME280;66045;51.622;5.526;2022-12-20T05:17:54;101181.84;;;15.40;53.12
76397;BME280;66045;51.622;5.526;2022-12-20T05:20:28;101173.91;;;15.40;53.14
76397;BME280;66045;51.622;5.526;2022-12-20T05:22:54;101175.56;;;15.48;52.95
76397;BME280;66045;51.622;5.526;2022-12-20T05:25:49;101173.84;;;15.43;53.16
76397;BME280;66045;51.622;5.526;2022-12-20T05:28:34;101155.31;;;15.40;53.11
76397;BME280;66045;51.622;5.526;2022-12-20T05:31:00;101166.81;;;15.41;53.14
76397;BME280;66045;51.622;5.526;2022-12-20T05:33:25;101163.28;;;15.40;53.24
76397;BME280;66045;51.622;5.526;2022-12-20T05:35:51;101165.03;;;15.41;53.27
76397;BME280;66045;51.622;5.526;2022-12-20T05:38:17;101165.94;;;15.40;53.33
76397;BME280;66045;51.622;5.526;2022-12-20T05:40:42;101166.81;;;15.41;53.26
76397;BME280;66045;51.622;5.526;2022-12-20T05:43:08;101162.38;;;15.40;53.27
76397;BME280;66045;51.622;5.526;2022-12-20T05:45:34;101163.28;;;15.40;53.14
76397;BME280;66045;51.622;5.526;2022-12-20T05:48:00;101158.84;;;15.41;53.32
76397;BME280;66045;51.622;5.526;2022-12-20T05:50:25;101145.59;;;15.41;53.30
76397;BME280;66045;51.622;5.526;2022-12-20T05:52:50;101149.13;;;15.41;53.17
76397;BME280;66045;51.622;5.526;2022-12-20T05:55:16;101153.56;;;15.39;53.19
76397;BME280;66045;51.622;5.526;2022-12-20T05:57:41;101147.38;;;15.39;53.39
76397;BME280;66045;51.622;5.526;2022-12-20T06:00:07;101141.19;;;15.38;53.25
76397;BME280;66045;51.622;5.526;2022-12-20T06:02:33;101127.91;;;15.41;53.49
76397;BME280;66045;51.622;5.526;2022-12-20T06:04:58;101134.94;;;15.42;53.38
76397;BME280;66045;51.622;5.526;2022-12-20T06:07:24;101129.69;;;15.41;53.54
76397;BME280;66045;51.622;5.526;2022-12-20T06:09:51;101125.25;;;15.40;53.37
76397;BME280;66045;51.622;5.526;2022-12-20T06:12:16;101120.84;;;15.40;53.47
76397;BME280;66045;51.622;5.526;2022-12-20T06:14:41;101111.97;;;15.41;53.38
76397;BME280;66045;51.622;5.526;2022-12-20T06:17:07;101115.50;;;15.42;53.30
76397;BME280;66045;51.622;5.526;2022-12-20T06:19:32;101104.06;;;15.38;53.40
76397;BME280;66045;51.622;5.526;2022-12-20T06:21:57;101103.16;;;15.41;53.39
76397;BME280;66045;51.622;5.526;2022-12-20T06:24:23;101102.28;;;15.39;53.34
76397;BME280;66045;51.622;5.526;2022-12-20T06:26:52;101109.34;;;15.41;53.40
76397;BME280;66045;51.622;5.526;2022-12-20T06:29:18;101096.06;;;15.41;53.19
76397;BME280;66045;51.622;5.526;2022-12-20T06:31:45;101102.28;;;15.39;53.53
76397;BME280;66045;51.622;5.526;2022-12-20T06:34:11;101116.41;;;15.41;53.56
76397;BME280;66045;51.622;5.526;2022-12-20T06:36:36;101121.72;;;15.41;53.21
76397;BME280;66045;51.622;5.526;2022-12-20T06:39:02;101118.16;;;15.42;53.32
76397;BME280;66045;51.622;5.526;2022-12-20T06:41:27;101116.38;;;15.42;53.29
76397;BME280;66045;51.622;5.526;2022-12-20T06:43:52;101113.75;;;15.41;53.39
76397;BME280;66045;51.622;5.526;2022-12-20T06:46:18;101119.91;;;15.43;53.39
76397;BME280;66045;51.622;5.526;2022-12-20T06:48:43;101111.13;;;15.41;53.43
76397;BME280;66045;51.622;5.526;2022-12-20T06:51:09;101116.38;;;15.42;53.33
76397;BME280;66045;51.622;5.526;2022-12-20T06:53:35;101109.34;;;15.41;53.31
76397;BME280;66045;51.622;5.526;2022-12-20T06:56:00;101113.72;;;15.42;53.42
76397;BME280;66045;51.622;5.526;2022-12-20T06:58:25;101101.38;;;15.41;53.37
76397;BME280;66045;51.622;5.526;2022-12-20T07:00:51;101106.69;;;15.41;53.31
76397;BME280;66045;51.622;5.526;2022-12-20T07:03:16;101099.59;;;15.42;53.40
76397;BME280;66045;51.622;5.526;2022-12-20T07:05:42;101113.75;;;15.41;53.57
76397;BME280;66045;51.622;5.526;2022-12-20T07:08:07;101105.78;;;15.42;53.47
76397;BME280;66045;51.622;5.526;2022-12-20T07:10:33;101114.63;;;15.41;53.53
76397;BME280;66045;51.622;5.526;2022-12-20T07:12:59;101104.06;;;15.38;53.52
76397;BME280;66045;51.622;5.526;2022-12-20T07:15:25;101117.28;;;15.41;53.46
76397;BME280;66045;51.622;5.526;2022-12-20T07:17:50;101115.53;;;15.40;53.52
76397;BME280;66045;51.622;5.526;2022-12-20T07:20:17;101111.13;;;15.41;53.60
76397;BME280;66045;51.622;5.526;2022-12-20T07:22:42;101102.28;;;15.37;53.99
76397;BME280;66045;51.622;5.526;2022-12-20T07:25:08;101112.00;;;15.40;53.96
76397;BME280;66045;51.622;5.526;2022-12-20T07:27:33;101111.13;;;15.39;53.96
76397;BME280;66045;51.622;5.526;2022-12-20T07:29:59;101104.06;;;15.37;54.13
76397;BME280;66045;51.622;5.526;2022-12-20T07:32:24;101104.94;;;15.39;54.22
76397;BME280;66045;51.622;5.526;2022-12-20T07:34:49;101108.50;;;15.38;54.33
76397;BME280;66045;51.622;5.526;2022-12-20T07:37:15;101104.06;;;15.38;54.25
76397;BME280;66045;51.622;5.526;2022-12-20T07:39:40;101112.91;;;15.37;54.20
76397;BME280;66045;51.622;5.526;2022-12-20T07:42:06;101123.50;;;15.37;54.28
76397;BME280;66045;51.622;5.526;2022-12-20T07:44:33;101112.94;;;15.34;54.43
76397;BME280;66045;51.622;5.526;2022-12-20T07:46:58;101116.50;;;15.35;54.20
76397;BME280;66045;51.622;5.526;2022-12-20T07:49:23;101125.31;;;15.35;54.15
76397;BME280;66045;51.622;5.526;2022-12-20T07:51:53;101110.38;;;15.28;54.16
76397;BME280;66045;51.622;5.526;2022-12-20T07:54:24;101127.09;;;15.35;54.24
76397;BME280;66045;51.622;5.526;2022-12-20T07:56:53;101127.97;;;15.34;54.35
76397;BME280;66045;51.622;5.526;2022-12-20T07:59:23;101131.47;;;15.40;53.90
76397;BME280;66045;51.622;5.526;2022-12-20T08:01:51;101136.81;;;15.36;54.22
76397;BME280;66045;51.622;5.526;2022-12-20T08:04:20;101136.84;;;15.33;54.27
76397;BME280;66045;51.622;5.526;2022-12-20T08:06:49;101143.94;;;15.31;54.44
76397;BME280;66045;51.622;5.526;2022-12-20T08:09:16;101149.28;;;15.29;54.62
76397;BME280;66045;51.622;5.526;2022-12-20T08:11:44;101145.72;;;15.29;54.60
76397;BME280;66045;51.622;5.526;2022-12-20T08:14:11;101132.47;;;15.27;54.44
76397;BME280;66045;51.622;5.526;2022-12-20T08:16:37;101139.56;;;15.27;54.44
76397;BME280;66045;51.622;5.526;2022-12-20T08:19:02;101129.84;;;15.27;54.54
76397;BME280;66045;51.622;5.526;2022-12-20T08:21:29;101124.53;;;15.26;54.57
76397;BME280;66045;51.622;5.526;2022-12-20T08:23:54;101127.22;;;15.24;54.99
76397;BME280;66045;51.622;5.526;2022-12-20T08:26:20;101124.56;;;15.22;54.70
76397;BME280;66045;51.622;5.526;2022-12-20T08:28:46;101132.53;;;15.24;54.96
76397;BME280;66045;51.622;5.526;2022-12-20T08:31:11;101138.69;;;15.23;54.91
76397;BME280;66045;51.622;5.526;2022-12-20T08:33:37;101132.53;;;15.22;55.13
76397;BME280;66045;51.622;5.526;2022-12-20T08:36:07;101136.09;;;15.21;55.14
76397;BME280;66045;51.622;5.526;2022-12-20T08:38:33;101130.78;;;15.21;55.28
76397;BME280;66045;51.622;5.526;2022-12-20T08:43:32;101140.50;;;15.19;55.39
76397;BME280;66045;51.622;5.526;2022-12-20T08:45:58;101128.16;;;15.17;55.63
76397;BME280;66045;51.622;5.526;2022-12-20T08:48:23;101132.59;;;15.18;55.63
76397;BME280;66045;51.622;5.526;2022-12-20T08:50:56;101133.44;;;15.20;55.46
76397;BME280;66045;51.622;5.526;2022-12-20T08:53:22;101120.22;;;15.18;55.85
76397;BME280;66045;51.622;5.526;2022-12-20T08:55:47;101125.50;;;15.18;55.95
76397;BME280;66045;51.622;5.526;2022-12-20T08:58:13;101120.22;;;15.18;56.05
76397;BME280;66045;51.622;5.526;2022-12-20T09:00:39;101120.22;;;15.18;55.97
76397;BME280;66045;51.622;5.526;2022-12-20T09:03:05;101118.44;;;15.17;56.19
76397;BME280;66045;51.622;5.526;2022-12-20T09:05:31;101126.38;;;15.17;56.03
76397;BME280;66045;51.622;5.526;2022-12-20T09:07:57;101125.50;;;15.17;56.17
76397;BME280;66045;51.622;5.526;2022-12-20T09:10:22;101124.66;;;15.15;56.18
76397;BME280;66045;51.622;5.526;2022-12-20T09:12:48;101111.44;;;15.13;56.26
76397;BME280;66045;51.622;5.526;2022-12-20T09:15:13;101116.72;;;15.13;56.18
76397;BME280;66045;51.622;5.526;2022-12-20T09:17:39;101108.78;;;15.13;56.14
76397;BME280;66045;51.622;5.526;2022-12-20T09:20:04;101113.16;;;15.14;56.38
76397;BME280;66045;51.622;5.526;2022-12-20T09:22:30;101110.53;;;15.14;56.31
76397;BME280;66045;51.622;5.526;2022-12-20T09:24:55;101105.22;;;15.14;56.55
76397;BME280;66045;51.622;5.526;2022-12-20T09:27:21;101112.28;;;15.14;56.72
76397;BME280;66045;51.622;5.526;2022-12-20T09:29:46;101110.56;;;15.13;56.40
76397;BME280;66045;51.622;5.526;2022-12-20T09:32:12;101107.88;;;15.14;56.66
76397;BME280;66045;51.622;5.526;2022-12-20T09:34:38;101110.53;;;15.14;56.64
76397;BME280;66045;51.622;5.526;2022-12-20T09:37:03;101114.03;;;15.15;56.50
76397;BME280;66045;51.622;5.526;2022-12-20T09:39:29;101108.75;;;15.15;56.73
76397;BME280;66045;51.622;5.526;2022-12-20T09:41:54;101113.16;;;15.16;56.73
76397;BME280;66045;51.622;5.526;2022-12-20T09:44:25;101112.25;;;15.17;57.01
76397;BME280;66045;51.622;5.526;2022-12-20T09:46:52;101105.09;;;15.25;56.05
76397;BME280;66045;51.622;5.526;2022-12-20T09:49:19;101111.34;;;15.19;56.68
76397;BME280;66045;51.622;5.526;2022-12-20T09:54:38;101108.72;;;15.18;56.72
76397;BME280;66045;51.622;5.526;2022-12-20T09:57:22;101109.59;;;15.17;56.72
76397;BME280;66045;51.622;5.526;2022-12-20T09:59:49;101109.59;;;15.17;56.90
76397;BME280;66045;51.622;5.526;2022-12-20T10:02:19;101116.69;;;15.15;57.00
76397;BME280;66045;51.622;5.526;2022-12-20T10:04:47;101092.84;;;15.15;57.08
76397;BME280;66045;51.622;5.526;2022-12-20T10:07:21;101102.56;;;15.14;57.07
76397;BME280;66045;51.622;5.526;2022-12-20T10:20:29;101100.84;;;15.10;57.38
76397;BME280;66045;51.622;5.526;2022-12-20T10:23:04;101083.22;;;15.06;57.38
76397;BME280;66045;51.622;5.526;2022-12-20T10:25:33;101092.91;;;15.10;57.51
76397;BME280;66045;51.622;5.526;2022-12-20T10:28:04;101094.66;;;15.11;57.63
76397;BME280;66045;51.622;5.526;2022-12-20T10:30:35;101083.16;;;15.11;57.55
76397;BME280;66045;51.622;5.526;2022-12-20T10:33:01;101070.91;;;15.00;57.39
76397;BME280;66045;51.622;5.526;2022-12-20T10:35:37;101078.78;;;15.08;57.30
76397;BME280;66045;51.622;5.526;2022-12-20T10:38:07;101083.13;;;15.12;57.54
76397;BME280;66045;51.622;5.526;2022-12-20T10:43:04;101079.63;;;15.12;57.54
76397;BME280;66045;51.622;5.526;2022-12-20T10:45:38;101071.69;;;15.10;57.55
76397;BME280;66045;51.622;5.526;2022-12-20T10:50:59;101084.91;;;15.13;57.95
76397;BME280;66045;51.622;5.526;2022-12-20T10:53:25;101076.97;;;15.13;58.08
76397;BME280;66045;51.622;5.526;2022-12-20T10:55:52;101080.50;;;15.12;58.26
76397;BME280;66045;51.622;5.526;2022-12-20T11:03:29;101076.97;;;15.12;58.26
76397;BME280;66045;51.622;5.526;2022-12-20T11:06:02;101072.56;;;15.11;58.38
76397;BME280;66045;51.622;5.526;2022-12-20T11:08:30;101077.88;;;15.11;58.46
76397;BME280;66045;51.622;5.526;2022-12-20T11:11:21;101061.97;;;15.11;58.15
76397;BME280;66045;51.622;5.526;2022-12-20T11:13:48;101073.44;;;15.11;58.90
76397;BME280;66045;51.622;5.526;2022-12-20T11:16:33;101066.41;;;15.10;58.47
76397;BME280;66045;51.622;5.526;2022-12-20T11:19:09;101064.63;;;15.11;59.03
76397;BME280;66045;51.622;5.526;2022-12-20T11:27:23;101073.44;;;15.11;59.00
76397;BME280;66045;51.622;5.526;2022-12-20T11:30:13;101058.44;;;15.10;58.92
76397;BME280;66045;51.622;5.526;2022-12-20T11:35:44;101057.56;;;15.08;59.37
76397;BME280;66045;51.622;5.526;2022-12-20T11:46:54;101045.19;;;15.10;59.52
76397;BME280;66045;51.622;5.526;2022-12-20T11:52:31;101039.00;;;15.10;59.65
76397;BME280;66045;51.622;5.526;2022-12-20T11:55:23;101041.66;;;15.08;59.47
76397;BME280;66045;51.622;5.526;2022-12-20T12:00:23;101047.00;;;15.05;60.48
76397;BME280;66045;51.622;5.526;2022-12-20T12:02:56;101033.75;;;15.04;60.61
76397;BME280;66045;51.622;5.526;2022-12-20T12:05:36;101038.19;;;15.03;60.26
76397;BME280;66045;51.622;5.526;2022-12-20T12:08:04;101031.06;;;15.10;59.39
76397;BME280;66045;51.622;5.526;2022-12-20T12:10:36;101030.22;;;15.05;60.47
76397;BME280;66045;51.622;5.526;2022-12-20T12:18:20;101034.66;;;15.04;60.44
76397;BME280;66045;51.622;5.526;2022-12-20T12:21:08;101031.97;;;15.06;60.21
76397;BME280;66045;51.622;5.526;2022-12-20T12:26:15;101026.72;;;15.04;60.46
76397;BME280;66045;51.622;5.526;2022-12-20T12:28:42;101017.03;;;15.02;60.60
76397;BME280;66045;51.622;5.526;2022-12-20T12:31:13;101016.13;;;15.04;60.41
76397;BME280;66045;51.622;5.526;2022-12-20T12:33:48;101020.50;;;15.05;60.38
76397;BME280;66045;51.622;5.526;2022-12-20T12:36:37;101001.13;;;15.00;60.05
76397;BME280;66045;51.622;5.526;2022-12-20T12:39:26;101013.47;;;15.03;60.27
76397;BME280;66045;51.622;5.526;2022-12-20T12:44:50;101016.13;;;15.04;60.64
76397;BME280;66045;51.622;5.526;2022-12-20T12:47:24;101021.41;;;15.03;60.54
76397;BME280;66045;51.622;5.526;2022-12-20T12:49:54;101006.47;;;14.95;60.99
76397;BME280;66045;51.622;5.526;2022-12-20T12:58:12;101023.09;;;15.10;59.86
76397;BME280;66045;51.622;5.526;2022-12-20T13:01:03;101023.16;;;15.05;60.75
76397;BME280;66045;51.622;5.526;2022-12-20T13:08:50;101016.13;;;15.01;60.87
76397;BME280;66045;51.622;5.526;2022-12-20T13:19:17;101011.72;;;15.00;61.34
76397;BME280;66045;51.622;5.526;2022-12-20T13:21:44;101012.63;;;14.99;61.48
76397;BME280;66045;51.622;5.526;2022-12-20T13:25:00;101016.13;;;15.01;60.90
76397;BME280;66045;51.622;5.526;2022-12-20T13:27:37;101013.53;;;14.96;61.46
76397;BME280;66045;51.622;5.526;2022-12-20T13:38:04;101010.91;;;14.95;61.63
76397;BME280;66045;51.622;5.526;2022-12-20T13:42:55;101018.84;;;14.95;61.64
76397;BME280;66045;51.622;5.526;2022-12-20T13:45:23;101015.38;;;14.91;61.71
76397;BME280;66045;51.622;5.526;2022-12-20T13:47:53;101010.06;;;14.91;61.86
76397;BME280;66045;51.622;5.526;2022-12-20T13:50:21;101006.50;;;14.94;62.06
76397;BME280;66045;51.622;5.526;2022-12-20T13:52:48;101004.75;;;14.93;62.20
76397;BME280;66045;51.622;5.526;2022-12-20T13:55:25;101011.81;;;14.94;61.79
76397;BME280;66045;51.622;5.526;2022-12-20T13:57:51;101006.47;;;14.95;61.89
76397;BME280;66045;51.622;5.526;2022-12-20T14:00:23;101010.91;;;14.95;62.08
76397;BME280;66045;51.622;5.526;2022-12-20T14:02:52;101004.72;;;14.96;62.07
76397;BME280;66045;51.622;5.526;2022-12-20T14:05:20;101007.38;;;14.96;62.08
76397;BME280;66045;51.622;5.526;2022-12-20T14:07:58;101017.06;;;14.95;61.83
76397;BME280;66045;51.622;5.526;2022-12-20T14:10:27;100996.72;;;14.97;61.94
76397;BME280;66045;51.622;5.526;2022-12-20T14:12:53;100993.28;;;14.91;61.81
76397;BME280;66045;51.622;5.526;2022-12-20T14:15:31;101002.91;;;14.98;62.02
76397;BME280;66045;51.622;5.526;2022-12-20T14:18:04;101009.09;;;14.98;61.89
76397;BME280;66045;51.622;5.526;2022-12-20T14:20:33;101002.03;;;14.99;61.96
76397;BME280;66045;51.622;5.526;2022-12-20T14:23:05;101001.16;;;14.98;61.91
76397;BME280;66045;51.622;5.526;2022-12-20T14:28:16;100996.72;;;14.97;62.01
76397;BME280;66045;51.622;5.526;2022-12-20T14:30:43;100999.38;;;14.97;62.21
76397;BME280;66045;51.622;5.526;2022-12-20T14:33:19;101001.16;;;14.97;62.10
76397;BME280;66045;51.622;5.526;2022-12-20T14:35:49;100997.59;;;14.98;62.20
76397;BME280;66045;51.622;5.526;2022-12-20T14:38:22;101004.69;;;14.97;62.21
76397;BME280;66045;51.622;5.526;2022-12-20T14:40:49;101013.50;;;14.98;62.29
76397;BME280;66045;51.622;5.526;2022-12-20T14:43:19;101007.34;;;14.97;62.16
76397;BME280;66045;51.622;5.526;2022-12-20T14:45:48;100989.78;;;14.90;62.10
76397;BME280;66045;51.622;5.526;2022-12-20T14:48:15;101002.94;;;14.96;62.26
76397;BME280;66045;51.622;5.526;2022-12-20T14:50:50;101000.34;;;14.92;62.12
76397;BME280;66045;51.622;5.526;2022-12-20T14:53:19;100998.50;;;14.95;62.26